Poulan, GA (31781)

12:45 AM EDT on May 27, 2015 (GMT -0400)
North Isabella Street | | Change Station
CLOSE
Current Station
Personal Weather Station
Location: Sylvester, GA
Elevation: 410 ft
Nearby Weather Stations

Elev 410 ft 31.53 °N, 83.84 °W | Updated 10 minutes ago

Clear
Clear
69.6 °F
Feels Like 69.6 °F
N
0.0
Wind Variable Wind from East

Today
High -- | Low -- °F
--% Chance of Precip.
Yesterday
High -- | Low -- °F
Precip. -- in
6:32 AM 8:32 PM
Waxing Gibbous, 64% visible
Pressure 30.22 in
Visibility 10.0 miles
Clouds Scattered Clouds 800 ft
Dew Point 69 °F
Humidity 97%
Rainfall 0.00 in
Snow Depth Not available.
UV 0 out of 12
Pollen 2.90 out of 12
Air Quality Not available.
Flu Activity Sporadic
METAR KTMA 270430Z AUTO 00000KT 10SM SCT008 21/20 A3022 RMK AO2 LTG DSNT SE T02080203

More Conditions Fewer Conditions

Pressure 30.22 in
Visibility 10.0 miles
Clouds Scattered Clouds 800 ft
Dew Point 69 °F
Humidity 97%
Rainfall 0.00 in
Snow Depth Not available.
UV 0 out of 12
Pollen 2.90 out of 12
Air Quality Not available.
Flu Activity Sporadic
METAR KTMA 270430Z AUTO 00000KT 10SM SCT008 21/20 A3022 RMK AO2 LTG DSNT SE T02080203

More Conditions Fewer Conditions

10-Day Weather Forecast

Almanac

Astronomy

May. 27, 2015 Rise Set
Actual Time
Civil Twilight
Nautical Twilight
Astronomical Twilight
Moon
Length of Visible Light
Length of Day
Tomorrow will be .
, % of the Moon is Illuminated

Today's Extremes

State Highs State Lows

Community

WunderPhotos

Upload Photos

1,824,615 photos uploaded!

WunderBlogs® & News

Nearby

Air Quality

  Air Quality AQ Index Pollutant
Not available.

Snow Depth

Station Depth Elevation

Earthquake Activity

City Distance Mag. Time & Date
Minimum magnitude displayed is 2.5.

Coastal Water Temperatures

Place Temperature

Stations

Nearby Weather Stations

Station Location Temp. Windchill Dew Point Humidity Wind Precip. Elev Updated Type